createdAt,value
2019-02-14T00:02:09.494Z,2.30
2019-02-14T00:04:55.875Z,2.35
2019-02-14T00:07:42.293Z,2.40
2019-02-14T00:10:28.609Z,2.30
2019-02-14T00:13:14.671Z,2.50
2019-02-14T00:16:00.807Z,2.30
2019-02-14T00:18:47.051Z,2.50
2019-02-14T00:21:33.355Z,2.62
2019-02-14T00:24:19.828Z,2.30
2019-02-14T00:27:06.272Z,2.47
2019-02-14T00:29:52.552Z,2.40
2019-02-14T00:32:38.929Z,2.25
2019-02-14T00:35:25.500Z,2.62
2019-02-14T00:38:11.876Z,2.60
2019-02-14T00:40:58.317Z,2.10
2019-02-14T00:43:44.692Z,2.70
2019-02-14T00:46:31.040Z,2.47
2019-02-14T00:49:17.371Z,2.50
2019-02-14T00:52:03.623Z,2.67
2019-02-14T00:54:50.035Z,2.47
2019-02-14T00:57:36.270Z,2.55
2019-02-14T01:00:22.637Z,2.58
2019-02-14T01:03:09.170Z,2.20
2019-02-14T01:05:57.013Z,2.22
2019-02-14T01:08:43.169Z,2.35
2019-02-14T01:11:30.356Z,2.40
2019-02-14T01:14:16.599Z,2.50
2019-02-14T01:17:03.151Z,2.60
2019-02-14T01:19:49.707Z,2.10
2019-02-14T01:22:36.040Z,2.35
2019-02-14T01:25:22.364Z,2.40
2019-02-14T01:28:08.863Z,2.12
2019-02-14T01:30:55.089Z,2.42
2019-02-14T01:33:41.782Z,2.20
2019-02-14T01:36:28.055Z,2.40
2019-02-14T01:39:14.485Z,2.27
2019-02-14T01:42:00.587Z,1.95
2019-02-14T01:44:47.039Z,2.40
2019-02-14T01:47:33.296Z,2.30
2019-02-14T01:50:19.727Z,2.33
2019-02-14T01:53:05.925Z,2.20
2019-02-14T01:55:52.327Z,2.37
2019-02-14T01:58:38.588Z,2.30
2019-02-14T02:01:24.799Z,2.35
2019-02-14T02:04:11.109Z,2.25
2019-02-14T02:06:57.599Z,2.65
2019-02-14T02:09:43.915Z,2.20
2019-02-14T02:12:30.167Z,2.02
2019-02-14T02:15:16.655Z,2.42
2019-02-14T02:18:02.542Z,2.30
2019-02-14T02:20:49.311Z,2.22
2019-02-14T02:23:35.424Z,2.40
2019-02-14T02:26:21.226Z,2.25
2019-02-14T02:29:08.584Z,2.22
2019-02-14T02:31:55.040Z,2.20
2019-02-14T02:34:41.412Z,2.00
2019-02-14T02:37:28.340Z,2.20
2019-02-14T02:40:14.716Z,2.22
2019-02-14T02:43:01.018Z,1.98
2019-02-14T02:45:47.411Z,2.15
2019-02-14T02:48:34.036Z,2.33
2019-02-14T02:51:20.161Z,2.00
2019-02-14T02:54:06.428Z,2.20
2019-02-14T02:56:52.735Z,2.10
2019-02-14T02:59:39.064Z,2.02
2019-02-14T03:02:25.637Z,2.30
2019-02-14T03:05:13.251Z,2.40
2019-02-14T03:07:59.571Z,2.40
2019-02-14T03:10:45.863Z,2.10
2019-02-14T03:13:32.416Z,2.22
2019-02-14T03:16:18.352Z,2.20
2019-02-14T03:19:04.924Z,2.10
2019-02-14T03:21:51.156Z,2.05
2019-02-14T03:24:37.726Z,2.27
2019-02-14T03:27:24.100Z,1.90
2019-02-14T03:30:11.148Z,2.30
2019-02-14T03:32:57.400Z,2.30
2019-02-14T03:35:43.863Z,2.20
2019-02-14T03:38:30.024Z,2.20
2019-02-14T03:41:15.822Z,1.90
2019-02-14T03:44:02.056Z,2.15
2019-02-14T03:46:48.359Z,1.90
2019-02-14T03:49:34.307Z,2.20
2019-02-14T03:52:20.884Z,1.98
2019-02-14T03:55:07.098Z,1.70
2019-02-14T03:57:53.270Z,1.80
2019-02-14T04:00:39.492Z,1.75
2019-02-14T04:03:25.990Z,2.00
2019-02-14T04:06:12.389Z,2.05
2019-02-14T04:08:58.855Z,1.85
2019-02-14T04:11:44.884Z,1.60
2019-02-14T04:14:31.940Z,2.10
2019-02-14T04:17:18.286Z,1.75
2019-02-14T04:20:04.663Z,1.90
2019-02-14T04:22:51.008Z,1.90
2019-02-14T04:25:37.262Z,2.00
2019-02-14T04:28:23.144Z,2.15
2019-02-14T04:31:08.999Z,1.70
2019-02-14T04:33:55.412Z,1.47
2019-02-14T04:36:41.811Z,1.80
2019-02-14T04:39:27.915Z,1.70
2019-02-14T04:42:15.086Z,1.80
2019-02-14T04:45:01.303Z,1.85
2019-02-14T04:47:47.560Z,1.92
2019-02-14T04:50:33.859Z,1.95
2019-02-14T04:53:20.435Z,1.90
2019-02-14T04:56:07.704Z,1.85
2019-02-14T04:58:54.095Z,2.00
2019-02-14T05:01:41.971Z,2.00
2019-02-14T05:04:27.904Z,1.77
2019-02-14T05:07:14.150Z,1.95
2019-02-14T05:10:00.675Z,2.15
2019-02-14T05:12:46.383Z,2.02
2019-02-14T05:15:32.260Z,1.80
2019-02-14T05:18:18.608Z,2.00
2019-02-14T05:21:04.902Z,2.00
2019-02-14T05:23:50.956Z,1.85
2019-02-14T05:26:37.175Z,1.98
2019-02-14T05:29:23.463Z,1.92
2019-02-14T05:32:10.027Z,1.92
2019-02-14T05:34:56.337Z,2.20
2019-02-14T05:37:42.735Z,1.85
2019-02-14T05:40:29.112Z,1.90
2019-02-14T05:43:15.664Z,1.82
2019-02-14T05:46:02.119Z,1.80
2019-02-14T05:48:48.648Z,1.82
2019-02-14T05:51:34.918Z,1.77
2019-02-14T05:54:21.493Z,1.77
2019-02-14T05:57:09.036Z,1.70
2019-02-14T05:59:56.984Z,2.10
2019-02-14T06:02:43.143Z,1.62
2019-02-14T06:05:29.648Z,1.87
2019-02-14T06:08:15.879Z,1.70
2019-02-14T06:11:02.543Z,2.02
2019-02-14T06:13:48.461Z,1.98
2019-02-14T06:16:34.715Z,1.80
2019-02-14T06:19:21.045Z,1.80
2019-02-14T06:22:07.479Z,1.80
2019-02-14T06:24:53.855Z,1.80
2019-02-14T06:27:40.213Z,1.87
2019-02-14T06:30:27.595Z,1.72
2019-02-14T06:33:13.974Z,1.80
2019-02-14T06:36:00.471Z,1.77
2019-02-14T06:38:46.488Z,1.60
2019-02-14T06:41:32.248Z,1.90
2019-02-14T06:44:18.143Z,1.70
2019-02-14T06:47:04.791Z,1.62
2019-02-14T06:49:51.753Z,1.90
2019-02-14T06:52:38.005Z,1.90
2019-02-14T06:55:23.865Z,1.60
2019-02-14T06:58:10.071Z,1.65
2019-02-14T07:00:56.447Z,1.67
2019-02-14T07:03:42.808Z,1.80
2019-02-14T07:06:29.103Z,1.60
2019-02-14T07:09:15.067Z,1.82
2019-02-14T07:12:01.417Z,1.90
2019-02-14T07:14:47.796Z,1.80
2019-02-14T07:17:34.236Z,1.80
2019-02-14T07:20:20.452Z,1.70
2019-02-14T07:23:06.416Z,1.62
2019-02-14T07:25:52.311Z,1.80
2019-02-14T07:28:38.775Z,2.00
2019-02-14T07:31:25.144Z,2.52
2019-02-14T07:34:11.336Z,3.87
2019-02-14T07:36:57.583Z,4.78
2019-02-14T07:39:44.213Z,4.35
2019-02-14T07:42:30.424Z,4.53
2019-02-14T07:45:16.442Z,4.67
2019-02-14T07:48:02.889Z,4.22
2019-02-14T07:50:49.161Z,4.50
2019-02-14T07:53:35.537Z,6.28
2019-02-14T07:56:21.948Z,6.45
2019-02-14T07:59:08.240Z,6.10
2019-02-14T08:01:54.371Z,6.67
2019-02-14T08:04:40.619Z,6.33
2019-02-14T08:07:35.476Z,6.55
2019-02-14T08:10:14.896Z,7.50
2019-02-14T08:13:01.225Z,8.90
2019-02-14T08:15:47.462Z,7.67
2019-02-14T08:18:33.928Z,8.95
2019-02-14T08:21:20.331Z,9.13
2019-02-14T08:24:06.655Z,9.38
2019-02-14T08:26:53.235Z,11.08
2019-02-14T08:29:39.453Z,9.33
2019-02-14T08:32:25.647Z,13.93
2019-02-14T08:35:12.267Z,16.90
2019-02-14T08:37:58.401Z,19.92
2019-02-14T08:40:44.727Z,17.62
2019-02-14T08:43:31.274Z,20.40
2019-02-14T08:46:18.774Z,20.57
2019-02-14T08:49:05.395Z,25.27
2019-02-14T08:51:51.873Z,25.23
2019-02-14T08:54:38.033Z,28.00
2019-02-14T08:57:24.529Z,28.85
2019-02-14T09:00:11.692Z,28.45
2019-02-14T09:02:57.727Z,25.30
2019-02-14T09:05:44.137Z,26.50
2019-02-14T09:08:30.480Z,24.87
2019-02-14T09:11:16.138Z,24.75
2019-02-14T09:14:03.191Z,25.68
2019-02-14T09:16:49.508Z,25.95
2019-02-14T09:19:35.839Z,26.02
2019-02-14T09:22:21.767Z,23.40
2019-02-14T09:25:07.979Z,22.32
2019-02-14T09:27:54.136Z,22.20
2019-02-14T09:30:40.120Z,21.48
2019-02-14T09:33:26.303Z,20.88
2019-02-14T09:36:12.749Z,24.63
2019-02-14T09:38:59.299Z,23.87
2019-02-14T09:41:45.589Z,29.18
2019-02-14T09:44:32.135Z,27.45
2019-02-14T09:47:18.497Z,36.05
2019-02-14T09:50:06.027Z,34.18
2019-02-14T09:52:52.048Z,33.88
2019-02-14T09:55:38.485Z,30.88
2019-02-14T09:58:24.860Z,32.88
2019-02-14T10:01:11.323Z,54.25
2019-02-14T10:04:00.724Z,65.55
2019-02-14T10:06:46.416Z,55.43
2019-02-14T10:09:32.985Z,57.93
2019-02-14T10:12:19.436Z,55.40
2019-02-14T10:15:06.379Z,58.48
2019-02-14T10:17:52.651Z,56.15
2019-02-14T10:20:38.657Z,58.75
2019-02-14T10:23:24.929Z,51.70
2019-02-14T10:26:11.215Z,49.35
2019-02-14T10:28:57.551Z,49.60
2019-02-14T10:31:43.407Z,52.10
2019-02-14T10:34:29.892Z,48.52
2019-02-14T10:37:16.118Z,49.00
2019-02-14T10:40:02.614Z,47.60
2019-02-14T10:42:49.096Z,43.63
2019-02-14T10:45:35.320Z,41.92
2019-02-14T10:48:21.603Z,40.43
2019-02-14T10:51:07.973Z,38.95
2019-02-14T10:53:54.027Z,36.42
2019-02-14T10:56:40.236Z,34.38
2019-02-14T10:59:26.646Z,33.00
2019-02-14T11:02:13.260Z,31.25
2019-02-14T11:05:01.028Z,30.85
2019-02-14T11:07:47.463Z,33.30
2019-02-14T11:10:34.353Z,28.52
2019-02-14T11:13:20.536Z,27.77
2019-02-14T11:16:07.070Z,26.17
2019-02-14T11:18:53.323Z,26.75
2019-02-14T11:21:39.192Z,22.25
2019-02-14T11:24:25.552Z,23.27
2019-02-14T11:27:12.204Z,23.95
2019-02-14T11:29:58.408Z,23.73
2019-02-14T11:32:44.847Z,25.75
2019-02-14T11:35:32.154Z,24.23
2019-02-14T11:38:18.712Z,21.50
2019-02-14T11:41:04.912Z,25.23
2019-02-14T11:43:50.925Z,24.63
2019-02-14T11:46:37.330Z,25.77
2019-02-14T11:49:23.588Z,30.88
2019-02-14T11:52:09.872Z,38.02
2019-02-14T11:54:56.499Z,54.45
2019-02-14T11:57:42.740Z,62.40
2019-02-14T12:00:29.191Z,55.15
2019-02-14T12:03:15.348Z,57.85
2019-02-14T12:06:01.381Z,55.35
2019-02-14T12:08:57.985Z,60.43
2019-02-14T12:11:35.647Z,62.27
2019-02-14T12:14:21.944Z,60.63
2019-02-14T12:17:08.271Z,58.78
2019-02-14T12:19:54.696Z,55.88
2019-02-14T12:22:46.792Z,50.33
2019-02-14T12:25:28.885Z,51.70
2019-02-14T12:28:15.593Z,47.80
2019-02-14T12:31:01.759Z,38.65
2019-02-14T12:33:48.044Z,37.05
2019-02-14T12:36:34.372Z,33.45
2019-02-14T12:39:20.725Z,29.55
2019-02-14T12:42:07.100Z,31.82
2019-02-14T12:44:53.601Z,32.90
2019-02-14T12:47:39.809Z,30.65
2019-02-14T12:50:26.219Z,27.82
2019-02-14T12:53:12.429Z,25.12
2019-02-14T12:55:58.868Z,25.52
2019-02-14T12:58:46.195Z,21.52
2019-02-14T13:01:32.603Z,26.02
2019-02-14T13:04:18.828Z,25.62
2019-02-14T13:07:05.167Z,23.22
2019-02-14T13:09:51.160Z,23.50
2019-02-14T13:12:38.560Z,20.95
2019-02-14T13:15:24.925Z,20.02
2019-02-14T13:18:11.309Z,20.48
2019-02-14T13:20:57.585Z,19.60
2019-02-14T13:23:44.096Z,19.98
2019-02-14T13:26:30.256Z,18.12
2019-02-14T13:29:16.507Z,19.75
2019-02-14T13:32:02.931Z,16.42
2019-02-14T13:34:49.327Z,15.53
2019-02-14T13:37:35.612Z,16.37
2019-02-14T13:40:22.154Z,15.55
2019-02-14T13:43:10.239Z,13.88
2019-02-14T13:45:56.332Z,13.85
2019-02-14T13:48:42.789Z,14.93
2019-02-14T13:51:29.187Z,12.50
2019-02-14T13:54:15.467Z,12.85
2019-02-14T13:57:01.844Z,11.90
2019-02-14T13:59:47.700Z,12.47
2019-02-14T14:02:33.688Z,11.88
2019-02-14T14:05:19.925Z,13.50
2019-02-14T14:08:06.399Z,12.47
2019-02-14T14:10:52.858Z,11.35
2019-02-14T14:13:39.186Z,10.82
2019-02-14T14:16:26.471Z,10.90
2019-02-14T14:19:12.435Z,10.43
2019-02-14T14:21:58.652Z,10.60
2019-02-14T14:24:45.223Z,9.53
2019-02-14T14:27:31.233Z,9.63
2019-02-14T14:30:17.476Z,9.55
2019-02-14T14:33:03.718Z,8.88
2019-02-14T14:35:50.164Z,8.93
2019-02-14T14:38:36.342Z,8.63
2019-02-14T14:41:23.204Z,8.45
2019-02-14T14:44:27.638Z,7.87
2019-02-14T14:47:19.091Z,8.35
2019-02-14T14:50:05.278Z,8.03
2019-02-14T14:52:51.522Z,7.62
2019-02-14T14:55:37.764Z,6.85
2019-02-14T14:58:24.052Z,7.20
2019-02-14T15:01:09.785Z,6.42
2019-02-14T15:03:56.174Z,7.53
2019-02-14T15:06:42.472Z,6.85
2019-02-14T15:09:28.843Z,6.83
2019-02-14T15:12:14.644Z,7.45
2019-02-14T15:15:01.146Z,6.42
2019-02-14T15:17:47.588Z,7.33
2019-02-14T15:20:33.975Z,6.80
2019-02-14T15:23:20.283Z,6.25
2019-02-14T15:26:07.204Z,6.55
2019-02-14T15:28:53.484Z,6.87
2019-02-14T15:31:40.268Z,6.17
2019-02-14T15:34:26.568Z,5.97
2019-02-14T15:37:15.374Z,6.22
2019-02-14T15:40:08.714Z,5.92
2019-02-14T15:42:49.435Z,5.83
2019-02-14T15:45:35.781Z,5.62
2019-02-14T15:48:22.470Z,5.45
2019-02-14T15:51:08.744Z,5.00
2019-02-14T15:53:55.032Z,5.97
2019-02-14T15:56:41.180Z,5.22
2019-02-14T15:59:28.869Z,5.33
2019-02-14T16:02:15.165Z,5.92
2019-02-14T16:05:01.464Z,5.53
2019-02-14T16:07:47.376Z,5.42
2019-02-14T16:10:33.652Z,4.90
2019-02-14T16:13:19.453Z,4.58
2019-02-14T16:16:05.962Z,4.78
2019-02-14T16:18:52.207Z,5.50
2019-02-14T16:21:38.145Z,4.80
2019-02-14T16:24:24.496Z,5.30
2019-02-14T16:27:10.781Z,5.70
2019-02-14T16:29:57.040Z,5.50
2019-02-14T16:32:43.324Z,4.90
2019-02-14T16:35:29.164Z,5.33
2019-02-14T16:38:16.095Z,4.90
2019-02-14T16:41:03.352Z,4.67
2019-02-14T16:43:49.763Z,4.75
2019-02-14T16:46:36.328Z,4.53
2019-02-14T16:49:22.868Z,4.87
2019-02-14T16:52:09.039Z,5.25
2019-02-14T16:54:55.171Z,4.92
2019-02-14T16:57:41.479Z,4.42
2019-02-14T17:00:27.851Z,4.90
2019-02-14T17:03:14.281Z,4.62
2019-02-14T17:06:00.127Z,4.72
2019-02-14T17:08:46.434Z,4.80
2019-02-14T17:11:32.969Z,4.75
2019-02-14T17:14:19.244Z,4.50
2019-02-14T17:17:05.640Z,5.03
2019-02-14T17:19:51.897Z,5.10
2019-02-14T17:22:38.239Z,4.58
2019-02-14T17:25:25.193Z,4.72
2019-02-14T17:28:11.615Z,4.85
2019-02-14T17:30:59.011Z,4.78
2019-02-14T17:33:45.501Z,4.85
2019-02-14T17:36:31.868Z,4.78
2019-02-14T17:39:18.199Z,5.22
2019-02-14T17:42:04.647Z,4.50
2019-02-14T17:44:51.156Z,4.75
2019-02-14T17:47:38.535Z,4.58
2019-02-14T17:50:24.983Z,4.80
2019-02-14T17:53:11.288Z,4.50
2019-02-14T17:55:57.984Z,4.90
2019-02-14T17:58:44.422Z,4.90
2019-02-14T18:01:30.761Z,4.50
2019-02-14T18:04:17.076Z,4.80
2019-02-14T18:07:02.932Z,4.92
2019-02-14T18:09:49.136Z,4.65
2019-02-14T18:12:35.387Z,4.40
2019-02-14T18:15:21.829Z,4.85
2019-02-14T18:18:08.111Z,4.62
2019-02-14T18:20:53.880Z,4.87
2019-02-14T18:23:40.712Z,4.72
2019-02-14T18:26:27.039Z,4.37
2019-02-14T18:29:13.431Z,4.40
2019-02-14T18:31:59.859Z,4.50
2019-02-14T18:34:46.123Z,4.72
2019-02-14T18:37:32.349Z,4.17
2019-02-14T18:40:18.823Z,4.50
2019-02-14T18:43:05.128Z,4.62
2019-02-14T18:45:51.832Z,4.33
2019-02-14T18:48:38.081Z,4.45
2019-02-14T18:51:24.417Z,4.70
2019-02-14T18:54:10.854Z,4.65
2019-02-14T18:56:56.987Z,4.35
2019-02-14T18:59:43.244Z,4.42
2019-02-14T19:02:29.685Z,4.30
2019-02-14T19:05:15.889Z,4.35
2019-02-14T19:08:02.278Z,4.28
2019-02-14T19:10:48.691Z,4.00
2019-02-14T19:13:34.987Z,3.95
2019-02-14T19:16:21.255Z,4.25
2019-02-14T19:19:07.847Z,4.20
2019-02-14T19:21:54.152Z,4.45
2019-02-14T19:24:40.676Z,3.80
2019-02-14T19:27:27.016Z,3.62
2019-02-14T19:30:14.052Z,3.92
2019-02-14T19:33:00.458Z,3.65
2019-02-14T19:35:46.835Z,4.15
2019-02-14T19:38:32.691Z,3.47
2019-02-14T19:41:25.275Z,3.58
2019-02-14T19:44:07.005Z,3.72
2019-02-14T19:46:53.285Z,3.90
2019-02-14T19:49:39.787Z,3.70
2019-02-14T19:52:26.016Z,3.70
2019-02-14T19:55:13.286Z,3.80
2019-02-14T19:58:00.977Z,4.03
2019-02-14T20:00:47.216Z,3.40
2019-02-14T20:03:33.525Z,3.60
2019-02-14T20:06:19.823Z,3.80
2019-02-14T20:09:06.564Z,3.52
2019-02-14T20:11:54.348Z,3.55
2019-02-14T20:14:40.388Z,3.50
2019-02-14T20:17:26.486Z,3.40
2019-02-14T20:20:12.713Z,3.50
2019-02-14T20:22:59.091Z,3.75
2019-02-14T20:25:45.328Z,3.85
2019-02-14T20:28:31.100Z,3.37
2019-02-14T20:31:17.563Z,3.42
2019-02-14T20:34:10.065Z,3.33
2019-02-14T20:36:56.453Z,3.75
2019-02-14T20:39:42.840Z,3.40
2019-02-14T20:42:29.118Z,3.83
2019-02-14T20:45:15.343Z,3.20
2019-02-14T20:48:01.641Z,3.30
2019-02-14T20:50:48.141Z,3.42
2019-02-14T20:53:34.504Z,3.33
2019-02-14T20:56:20.360Z,3.40
2019-02-14T20:59:06.687Z,3.30
2019-02-14T21:01:52.915Z,3.40
2019-02-14T21:04:39.311Z,3.20
2019-02-14T21:07:25.587Z,3.27
2019-02-14T21:10:12.019Z,3.10
2019-02-14T21:12:57.990Z,3.17
2019-02-14T21:15:44.139Z,3.27
2019-02-14T21:18:30.553Z,3.05
2019-02-14T21:21:17.117Z,3.40
2019-02-14T21:24:03.339Z,3.35
2019-02-14T21:26:49.839Z,3.42
2019-02-14T21:29:36.119Z,3.20
2019-02-14T21:32:22.335Z,2.98
2019-02-14T21:35:08.773Z,3.17
2019-02-14T21:37:55.278Z,3.22
2019-02-14T21:40:41.490Z,3.17
2019-02-14T21:43:27.452Z,3.10
2019-02-14T21:46:16.225Z,3.30
2019-02-14T21:49:03.023Z,3.10
2019-02-14T21:51:49.475Z,3.25
2019-02-14T21:54:36.358Z,3.30
2019-02-14T21:57:22.600Z,3.33
2019-02-14T22:00:11.835Z,2.87
2019-02-14T22:02:59.610Z,2.98
2019-02-14T22:05:45.933Z,3.10
2019-02-14T22:08:32.235Z,3.00
2019-02-14T22:11:18.741Z,3.22
2019-02-14T22:14:05.711Z,3.10
2019-02-14T22:16:52.129Z,3.08
2019-02-14T22:19:38.512Z,3.27
2019-02-14T22:22:24.863Z,3.20
2019-02-14T22:25:10.777Z,3.22
2019-02-14T22:27:57.280Z,2.98
2019-02-14T22:30:43.485Z,3.30
2019-02-14T22:33:29.465Z,3.20
2019-02-14T22:36:15.835Z,3.30
2019-02-14T22:39:02.148Z,2.90
2019-02-14T22:41:50.092Z,3.00
2019-02-14T22:44:36.607Z,3.02
2019-02-14T22:47:22.883Z,3.35
2019-02-14T22:50:09.055Z,3.15
2019-02-14T22:52:55.121Z,3.15
2019-02-14T22:55:41.560Z,2.98
2019-02-14T22:58:27.952Z,3.12
2019-02-14T23:01:14.375Z,3.05
2019-02-14T23:04:01.138Z,3.40
2019-02-14T23:06:47.952Z,2.98
2019-02-14T23:09:34.206Z,3.20
2019-02-14T23:12:20.539Z,2.98
2019-02-14T23:15:06.935Z,3.05
2019-02-14T23:17:53.633Z,3.20
2019-02-14T23:20:39.983Z,3.08
2019-02-14T23:23:26.435Z,2.90
2019-02-14T23:26:12.599Z,3.10
2019-02-14T23:29:00.115Z,3.12
2019-02-14T23:31:46.067Z,3.10
2019-02-14T23:34:32.436Z,3.12
2019-02-14T23:37:18.811Z,2.90
2019-02-14T23:40:04.932Z,3.15
2019-02-14T23:42:50.793Z,3.00
2019-02-14T23:45:36.603Z,2.90
2019-02-14T23:48:22.967Z,3.10
2019-02-14T23:51:09.549Z,3.20
2019-02-14T23:53:55.934Z,3.27
2019-02-14T23:56:42.303Z,3.05
2019-02-14T23:59:28.598Z,3.10
